sensor_id;sensor_type;location;lat;lon;timestamp;pressure;altitude;pressure_sealevel;temperature;humidity
51067;BME280;37112;45.892;-123.962;2023-04-01T00:02:05;101195.73;;;7.63;90.77
51067;BME280;37112;45.892;-123.962;2023-04-01T00:04:15;101191.84;;;7.60;90.68
51067;BME280;37112;45.892;-123.962;2023-04-01T00:06:25;101187.94;;;7.57;91.13
51067;BME280;37112;45.892;-123.962;2023-04-01T00:08:35;101176.95;;;7.53;90.76
51067;BME280;37112;45.892;-123.962;2023-04-01T00:10:45;101170.31;;;7.47;90.84
51067;BME280;37112;45.892;-123.962;2023-04-01T00:12:55;101165.45;;;7.42;90.39
51067;BME280;37112;45.892;-123.962;2023-04-01T00:15:08;101160.81;;;7.39;90.68
51067;BME280;37112;45.892;-123.962;2023-04-01T00:17:18;101153.20;;;7.36;90.84
51067;BME280;37112;45.892;-123.962;2023-04-01T00:19:31;101168.17;;;7.33;90.72
51067;BME280;37112;45.892;-123.962;2023-04-01T00:21:41;101159.48;;;7.30;91.22
51067;BME280;37112;45.892;-123.962;2023-04-01T00:23:51;101169.75;;;7.26;90.83
51067;BME280;37112;45.892;-123.962;2023-04-01T00:26:02;101149.60;;;7.22;91.06
51067;BME280;37112;45.892;-123.962;2023-04-01T00:28:13;101144.15;;;7.21;91.56
51067;BME280;37112;45.892;-123.962;2023-04-01T00:30:22;101141.69;;;7.21;91.44
51067;BME280;37112;45.892;-123.962;2023-04-01T00:32:32;101139.17;;;7.22;91.65
51067;BME280;37112;45.892;-123.962;2023-04-01T00:34:42;101142.65;;;7.23;91.89
51067;BME280;37112;45.892;-123.962;2023-04-01T00:36:52;101138.34;;;7.25;92.86
51067;BME280;37112;45.892;-123.962;2023-04-01T00:39:03;101133.20;;;7.29;93.34
51067;BME280;37112;45.892;-123.962;2023-04-01T00:41:14;101125.45;;;7.33;93.78
51067;BME280;37112;45.892;-123.962;2023-04-01T00:43:24;101127.30;;;7.35;93.64
51067;BME280;37112;45.892;-123.962;2023-04-01T00:45:37;101123.19;;;7.32;93.50
51067;BME280;37112;45.892;-123.962;2023-04-01T00:47:47;101117.80;;;7.30;93.70
51067;BME280;37112;45.892;-123.962;2023-04-01T00:49:58;101109.84;;;7.30;93.88
51067;BME280;37112;45.892;-123.962;2023-04-01T00:52:10;101100.18;;;7.29;93.55
51067;BME280;37112;45.892;-123.962;2023-04-01T00:54:22;101099.17;;;7.28;93.05
51067;BME280;37112;45.892;-123.962;2023-04-01T00:56:35;101095.25;;;7.25;93.06
51067;BME280;37112;45.892;-123.962;2023-04-01T00:58:50;101083.89;;;7.22;92.88
51067;BME280;37112;45.892;-123.962;2023-04-01T01:01:01;101084.89;;;7.20;93.75
51067;BME280;37112;45.892;-123.962;2023-04-01T01:03:11;101083.96;;;7.17;93.54
51067;BME280;37112;45.892;-123.962;2023-04-01T01:05:26;101091.73;;;7.17;93.63
51067;BME280;37112;45.892;-123.962;2023-04-01T01:07:54;101074.03;;;7.14;92.99
51067;BME280;37112;45.892;-123.962;2023-04-01T01:10:11;101083.95;;;7.10;92.95
51067;BME280;37112;45.892;-123.962;2023-04-01T01:12:28;101088.59;;;7.09;93.11
51067;BME280;37112;45.892;-123.962;2023-04-01T01:14:50;101072.08;;;7.07;93.44
51067;BME280;37112;45.892;-123.962;2023-04-01T01:17:06;101073.25;;;7.05;93.69
51067;BME280;37112;45.892;-123.962;2023-04-01T01:19:40;101059.48;;;7.05;93.87
51067;BME280;37112;45.892;-123.962;2023-04-01T01:22:08;101050.63;;;7.06;94.36
51067;BME280;37112;45.892;-123.962;2023-04-01T01:24:44;101041.87;;;7.08;94.38
51067;BME280;37112;45.892;-123.962;2023-04-01T01:27:04;101030.30;;;7.10;94.68
51067;BME280;37112;45.892;-123.962;2023-04-01T01:31:59;101024.56;;;7.15;95.51
51067;BME280;37112;45.892;-123.962;2023-04-01T01:34:17;101033.00;;;7.16;95.17
51067;BME280;37112;45.892;-123.962;2023-04-01T01:36:34;101027.77;;;7.14;94.78
51067;BME280;37112;45.892;-123.962;2023-04-01T01:38:48;101018.08;;;7.11;94.85
51067;BME280;37112;45.892;-123.962;2023-04-01T01:41:01;101016.16;;;7.10;94.60
51067;BME280;37112;45.892;-123.962;2023-04-01T01:43:11;101008.93;;;7.10;94.57
51067;BME280;37112;45.892;-123.962;2023-04-01T01:45:23;100994.42;;;7.10;95.00
51067;BME280;37112;45.892;-123.962;2023-04-01T01:47:35;100998.43;;;7.12;94.97
51067;BME280;37112;45.892;-123.962;2023-04-01T01:49:46;100992.14;;;7.13;95.26
51067;BME280;37112;45.892;-123.962;2023-04-01T01:51:56;100991.88;;;7.15;95.43
51067;BME280;37112;45.892;-123.962;2023-04-01T01:54:06;100985.40;;;7.18;95.46
51067;BME280;37112;45.892;-123.962;2023-04-01T01:56:19;100982.83;;;7.20;95.82
51067;BME280;37112;45.892;-123.962;2023-04-01T01:58:33;100974.55;;;7.23;95.96
51067;BME280;37112;45.892;-123.962;2023-04-01T02:00:53;100975.81;;;7.26;96.06
51067;BME280;37112;45.892;-123.962;2023-04-01T02:03:05;100977.25;;;7.29;95.95
51067;BME280;37112;45.892;-123.962;2023-04-01T02:05:18;100963.88;;;7.31;96.02
51067;BME280;37112;45.892;-123.962;2023-04-01T02:07:31;100962.17;;;7.34;96.10
51067;BME280;37112;45.892;-123.962;2023-04-01T02:09:43;100944.19;;;7.37;97.28
51067;BME280;37112;45.892;-123.962;2023-04-01T02:11:56;100942.95;;;7.40;97.17
51067;BME280;37112;45.892;-123.962;2023-04-01T02:14:07;100939.56;;;7.44;97.66
51067;BME280;37112;45.892;-123.962;2023-04-01T02:16:23;100952.34;;;7.46;97.54
51067;BME280;37112;45.892;-123.962;2023-04-01T02:18:39;100937.80;;;7.48;98.01
51067;BME280;37112;45.892;-123.962;2023-04-01T02:20:51;100919.42;;;7.51;98.55
51067;BME280;37112;45.892;-123.962;2023-04-01T02:23:01;100921.80;;;7.52;98.64
51067;BME280;37112;45.892;-123.962;2023-04-01T02:25:14;100918.83;;;7.56;98.77
51067;BME280;37112;45.892;-123.962;2023-04-01T02:27:26;100914.45;;;7.59;98.95
51067;BME280;37112;45.892;-123.962;2023-04-01T02:29:37;100921.06;;;7.60;99.22
51067;BME280;37112;45.892;-123.962;2023-04-01T02:31:47;100910.48;;;7.64;99.50
51067;BME280;37112;45.892;-123.962;2023-04-01T02:33:59;100905.41;;;7.66;99.50
51067;BME280;37112;45.892;-123.962;2023-04-01T02:36:12;100905.97;;;7.68;99.40
51067;BME280;37112;45.892;-123.962;2023-04-01T02:38:23;100905.32;;;7.71;99.07
51067;BME280;37112;45.892;-123.962;2023-04-01T02:40:45;100893.02;;;7.73;99.76
51067;BME280;37112;45.892;-123.962;2023-04-01T02:42:55;100895.22;;;7.74;99.75
51067;BME280;37112;45.892;-123.962;2023-04-01T02:45:07;100887.27;;;7.74;99.66
51067;BME280;37112;45.892;-123.962;2023-04-01T02:47:17;100905.08;;;7.75;99.47
51067;BME280;37112;45.892;-123.962;2023-04-01T02:49:27;100901.71;;;7.75;99.66
51067;BME280;37112;45.892;-123.962;2023-04-01T02:51:37;100901.87;;;7.75;99.83
51067;BME280;37112;45.892;-123.962;2023-04-01T02:53:47;100898.31;;;7.76;100.00
51067;BME280;37112;45.892;-123.962;2023-04-01T02:55:57;100894.14;;;7.78;100.00
51067;BME280;37112;45.892;-123.962;2023-04-01T02:58:07;100889.09;;;7.80;100.00
51067;BME280;37112;45.892;-123.962;2023-04-01T03:00:19;100888.20;;;7.83;100.00
51067;BME280;37112;45.892;-123.962;2023-04-01T03:02:29;100890.60;;;7.85;100.00
51067;BME280;37112;45.892;-123.962;2023-04-01T03:04:39;100894.42;;;7.86;100.00
51067;BME280;37112;45.892;-123.962;2023-04-01T03:06:49;100890.40;;;7.89;100.00
51067;BME280;37112;45.892;-123.962;2023-04-01T03:09:00;100890.28;;;7.91;100.00
51067;BME280;37112;45.892;-123.962;2023-04-01T03:11:11;100891.02;;;7.93;100.00
51067;BME280;37112;45.892;-123.962;2023-04-01T03:13:21;100881.73;;;7.95;100.00
51067;BME280;37112;45.892;-123.962;2023-04-01T03:15:31;100883.90;;;7.98;100.00
51067;BME280;37112;45.892;-123.962;2023-04-01T03:17:41;100881.85;;;7.99;100.00
51067;BME280;37112;45.892;-123.962;2023-04-01T03:19:52;100885.31;;;8.01;100.00
51067;BME280;37112;45.892;-123.962;2023-04-01T03:22:02;100890.77;;;8.01;100.00
51067;BME280;37112;45.892;-123.962;2023-04-01T03:24:12;100903.48;;;8.01;100.00
51067;BME280;37112;45.892;-123.962;2023-04-01T03:26:22;100913.29;;;8.04;100.00
51067;BME280;37112;45.892;-123.962;2023-04-01T03:28:34;100911.91;;;8.06;100.00
51067;BME280;37112;45.892;-123.962;2023-04-01T03:30:45;100907.89;;;8.08;100.00
51067;BME280;37112;45.892;-123.962;2023-04-01T03:32:55;100935.45;;;8.05;100.00
51067;BME280;37112;45.892;-123.962;2023-04-01T03:35:06;100943.08;;;7.95;100.00
51067;BME280;37112;45.892;-123.962;2023-04-01T03:37:15;100954.56;;;7.85;100.00
51067;BME280;37112;45.892;-123.962;2023-04-01T03:39:26;100958.08;;;7.76;100.00
51067;BME280;37112;45.892;-123.962;2023-04-01T03:41:37;100963.05;;;7.65;99.75
51067;BME280;37112;45.892;-123.962;2023-04-01T03:43:47;100965.61;;;7.57;99.63
51067;BME280;37112;45.892;-123.962;2023-04-01T03:45:57;100972.02;;;7.48;99.74
51067;BME280;37112;45.892;-123.962;2023-04-01T03:48:08;100982.70;;;7.40;99.32
51067;BME280;37112;45.892;-123.962;2023-04-01T03:50:19;100990.38;;;7.32;99.29
51067;BME280;37112;45.892;-123.962;2023-04-01T03:52:29;100999.80;;;7.27;99.36
51067;BME280;37112;45.892;-123.962;2023-04-01T03:54:40;101012.78;;;7.25;99.54
51067;BME280;37112;45.892;-123.962;2023-04-01T03:56:50;101016.20;;;7.23;99.77
51067;BME280;37112;45.892;-123.962;2023-04-01T03:59:00;101025.73;;;7.24;99.69
51067;BME280;37112;45.892;-123.962;2023-04-01T04:01:19;101032.86;;;7.22;99.60
51067;BME280;37112;45.892;-123.962;2023-04-01T04:03:31;101043.20;;;7.20;99.55
51067;BME280;37112;45.892;-123.962;2023-04-01T04:05:49;101045.80;;;7.18;99.55
51067;BME280;37112;45.892;-123.962;2023-04-01T04:07:59;101052.21;;;7.20;99.61
51067;BME280;37112;45.892;-123.962;2023-04-01T04:10:11;101056.55;;;7.18;98.43
51067;BME280;37112;45.892;-123.962;2023-04-01T04:12:21;101060.93;;;7.15;98.33
51067;BME280;37112;45.892;-123.962;2023-04-01T04:14:31;101061.08;;;7.16;98.46
51067;BME280;37112;45.892;-123.962;2023-04-01T04:16:43;101067.42;;;7.16;98.29
51067;BME280;37112;45.892;-123.962;2023-04-01T04:18:53;101072.36;;;7.16;98.35
51067;BME280;37112;45.892;-123.962;2023-04-01T04:21:05;101075.55;;;7.16;98.32
51067;BME280;37112;45.892;-123.962;2023-04-01T04:23:19;101077.66;;;7.16;98.36
51067;BME280;37112;45.892;-123.962;2023-04-01T04:25:31;101080.96;;;7.17;98.40
51067;BME280;37112;45.892;-123.962;2023-04-01T04:27:41;101083.54;;;7.19;98.43
51067;BME280;37112;45.892;-123.962;2023-04-01T04:29:53;101086.21;;;7.21;98.52
51067;BME280;37112;45.892;-123.962;2023-04-01T04:32:03;101088.23;;;7.24;98.49
51067;BME280;37112;45.892;-123.962;2023-04-01T04:34:13;101096.13;;;7.29;98.56
51067;BME280;37112;45.892;-123.962;2023-04-01T04:36:23;101098.40;;;7.33;98.63
51067;BME280;37112;45.892;-123.962;2023-04-01T04:38:38;101104.00;;;7.38;98.59
51067;BME280;37112;45.892;-123.962;2023-04-01T04:41:02;101106.41;;;7.43;98.68
51067;BME280;37112;45.892;-123.962;2023-04-01T04:43:14;101105.92;;;7.45;98.36
51067;BME280;37112;45.892;-123.962;2023-04-01T04:45:25;101107.78;;;7.37;95.41
51067;BME280;37112;45.892;-123.962;2023-04-01T04:47:35;101112.77;;;7.28;95.03
51067;BME280;37112;45.892;-123.962;2023-04-01T04:49:46;101115.27;;;7.24;94.12
51067;BME280;37112;45.892;-123.962;2023-04-01T04:51:56;101123.88;;;7.25;95.08
51067;BME280;37112;45.892;-123.962;2023-04-01T04:54:08;101129.06;;;7.27;94.55
51067;BME280;37112;45.892;-123.962;2023-04-01T04:56:38;101130.33;;;7.30;94.85
51067;BME280;37112;45.892;-123.962;2023-04-01T04:58:50;101133.55;;;7.33;94.91
51067;BME280;37112;45.892;-123.962;2023-04-01T05:01:10;101136.11;;;7.35;94.91
51067;BME280;37112;45.892;-123.962;2023-04-01T05:03:20;101138.71;;;7.36;94.52
51067;BME280;37112;45.892;-123.962;2023-04-01T05:05:31;101145.19;;;7.37;94.51
51067;BME280;37112;45.892;-123.962;2023-04-01T05:07:45;101139.44;;;7.40;94.57
51067;BME280;37112;45.892;-123.962;2023-04-01T05:09:55;101131.39;;;7.42;94.27
51067;BME280;37112;45.892;-123.962;2023-04-01T05:12:07;101142.13;;;7.42;94.04
51067;BME280;37112;45.892;-123.962;2023-04-01T05:14:39;101157.13;;;7.43;93.91
51067;BME280;37112;45.892;-123.962;2023-04-01T05:16:50;101159.95;;;7.43;93.39
51067;BME280;37112;45.892;-123.962;2023-04-01T05:19:01;101156.59;;;7.43;93.29
51067;BME280;37112;45.892;-123.962;2023-04-01T05:21:13;101158.95;;;7.42;93.18
51067;BME280;37112;45.892;-123.962;2023-04-01T05:23:24;101161.64;;;7.41;92.75
51067;BME280;37112;45.892;-123.962;2023-04-01T05:25:36;101163.38;;;7.41;92.44
51067;BME280;37112;45.892;-123.962;2023-04-01T05:27:47;101162.41;;;7.43;92.77
51067;BME280;37112;45.892;-123.962;2023-04-01T05:29:57;101159.90;;;7.44;92.63
51067;BME280;37112;45.892;-123.962;2023-04-01T05:32:39;101163.02;;;7.45;92.83
51067;BME280;37112;45.892;-123.962;2023-04-01T05:34:52;101168.28;;;7.45;92.75
51067;BME280;37112;45.892;-123.962;2023-04-01T05:37:03;101165.63;;;7.45;92.37
51067;BME280;37112;45.892;-123.962;2023-04-01T05:39:13;101162.13;;;7.45;92.06
51067;BME280;37112;45.892;-123.962;2023-04-01T05:41:24;101164.73;;;7.42;91.68
51067;BME280;37112;45.892;-123.962;2023-04-01T05:43:35;101171.68;;;7.41;91.58
51067;BME280;37112;45.892;-123.962;2023-04-01T05:46:04;101169.30;;;7.39;91.32
51067;BME280;37112;45.892;-123.962;2023-04-01T05:48:26;101173.59;;;7.38;90.68
51067;BME280;37112;45.892;-123.962;2023-04-01T05:50:37;101175.94;;;7.37;90.62
51067;BME280;37112;45.892;-123.962;2023-04-01T05:52:47;101183.72;;;7.37;90.75
51067;BME280;37112;45.892;-123.962;2023-04-01T05:54:57;101189.05;;;7.36;90.76
51067;BME280;37112;45.892;-123.962;2023-04-01T05:57:08;101198.03;;;7.37;90.89
51067;BME280;37112;45.892;-123.962;2023-04-01T05:59:18;101194.29;;;7.37;90.53
51067;BME280;37112;45.892;-123.962;2023-04-01T06:01:28;101189.75;;;7.36;90.44
51067;BME280;37112;45.892;-123.962;2023-04-01T06:03:38;101187.73;;;7.38;90.53
51067;BME280;37112;45.892;-123.962;2023-04-01T06:05:49;101190.59;;;7.37;90.19
51067;BME280;37112;45.892;-123.962;2023-04-01T06:08:01;101194.27;;;7.38;90.10
51067;BME280;37112;45.892;-123.962;2023-04-01T06:10:18;101191.64;;;7.37;89.66
51067;BME280;37112;45.892;-123.962;2023-04-01T06:12:50;101191.68;;;7.37;89.72
51067;BME280;37112;45.892;-123.962;2023-04-01T06:15:13;101200.43;;;7.35;89.61
51067;BME280;37112;45.892;-123.962;2023-04-01T06:17:35;101198.68;;;7.34;89.43
51067;BME280;37112;45.892;-123.962;2023-04-01T06:19:57;101198.15;;;7.34;89.58
51067;BME280;37112;45.892;-123.962;2023-04-01T06:22:38;101195.69;;;7.34;89.14
51067;BME280;37112;45.892;-123.962;2023-04-01T06:25:04;101191.33;;;7.33;89.13
51067;BME280;37112;45.892;-123.962;2023-04-01T06:27:26;101196.27;;;7.33;89.15
51067;BME280;37112;45.892;-123.962;2023-04-01T06:30:00;101199.62;;;7.33;89.19
51067;BME280;37112;45.892;-123.962;2023-04-01T06:37:32;101197.80;;;7.30;88.64
51067;BME280;37112;45.892;-123.962;2023-04-01T06:40:16;101195.45;;;7.28;88.16
51067;BME280;37112;45.892;-123.962;2023-04-01T06:42:51;101197.15;;;7.25;88.23
51067;BME280;37112;45.892;-123.962;2023-04-01T06:45:49;101192.63;;;7.24;88.08
51067;BME280;37112;45.892;-123.962;2023-04-01T06:48:36;101198.35;;;7.22;87.99
51067;BME280;37112;45.892;-123.962;2023-04-01T06:51:23;101205.41;;;7.22;87.84
51067;BME280;37112;45.892;-123.962;2023-04-01T06:54:03;101200.84;;;7.22;87.61
51067;BME280;37112;45.892;-123.962;2023-04-01T06:56:46;101201.80;;;7.20;87.21
51067;BME280;37112;45.892;-123.962;2023-04-01T06:59:05;101203.98;;;7.19;87.33
51067;BME280;37112;45.892;-123.962;2023-04-01T07:01:20;101209.30;;;7.19;87.49
51067;BME280;37112;45.892;-123.962;2023-04-01T07:03:35;101210.86;;;7.19;87.40
51067;BME280;37112;45.892;-123.962;2023-04-01T07:05:47;101211.27;;;7.18;87.05
51067;BME280;37112;45.892;-123.962;2023-04-01T07:07:59;101215.84;;;7.18;87.25
51067;BME280;37112;45.892;-123.962;2023-04-01T07:10:19;101210.34;;;7.19;87.32
51067;BME280;37112;45.892;-123.962;2023-04-01T07:12:55;101214.33;;;7.20;87.26
51067;BME280;37112;45.892;-123.962;2023-04-01T07:15:50;101215.06;;;7.20;86.68
51067;BME280;37112;45.892;-123.962;2023-04-01T07:18:09;101210.00;;;7.19;86.81
51067;BME280;37112;45.892;-123.962;2023-04-01T07:20:25;101209.60;;;7.19;86.87
51067;BME280;37112;45.892;-123.962;2023-04-01T07:22:40;101209.36;;;7.21;86.97
51067;BME280;37112;45.892;-123.962;2023-04-01T07:25:13;101208.69;;;7.21;86.74
51067;BME280;37112;45.892;-123.962;2023-04-01T07:27:29;101210.63;;;7.20;86.61
51067;BME280;37112;45.892;-123.962;2023-04-01T07:29:39;101211.67;;;7.20;86.62
51067;BME280;37112;45.892;-123.962;2023-04-01T07:32:20;101213.11;;;7.20;86.71
51067;BME280;37112;45.892;-123.962;2023-04-01T07:34:40;101212.88;;;7.21;86.77
51067;BME280;37112;45.892;-123.962;2023-04-01T07:36:57;101206.30;;;7.22;86.85
51067;BME280;37112;45.892;-123.962;2023-04-01T07:39:18;101205.58;;;7.22;86.77
51067;BME280;37112;45.892;-123.962;2023-04-01T07:41:54;101205.03;;;7.23;86.71
51067;BME280;37112;45.892;-123.962;2023-04-01T07:44:12;101202.57;;;7.22;86.35
51067;BME280;37112;45.892;-123.962;2023-04-01T07:46:36;101203.33;;;7.21;86.44
51067;BME280;37112;45.892;-123.962;2023-04-01T07:48:53;101200.67;;;7.21;86.41
51067;BME280;37112;45.892;-123.962;2023-04-01T07:51:09;101197.66;;;7.22;86.49
51067;BME280;37112;45.892;-123.962;2023-04-01T07:53:30;101199.91;;;7.23;86.67
51067;BME280;37112;45.892;-123.962;2023-04-01T07:55:46;101198.65;;;7.23;86.50
51067;BME280;37112;45.892;-123.962;2023-04-01T07:58:03;101198.66;;;7.23;86.42
51067;BME280;37112;45.892;-123.962;2023-04-01T08:00:22;101202.09;;;7.22;85.98
51067;BME280;37112;45.892;-123.962;2023-04-01T08:02:51;101201.98;;;7.20;86.07
51067;BME280;37112;45.892;-123.962;2023-04-01T08:05:14;101200.80;;;7.19;85.58
51067;BME280;37112;45.892;-123.962;2023-04-01T08:07:28;101202.80;;;7.18;85.72
51067;BME280;37112;45.892;-123.962;2023-04-01T08:10:08;101202.75;;;7.19;85.90
51067;BME280;37112;45.892;-123.962;2023-04-01T08:12:47;101198.49;;;7.19;85.92
51067;BME280;37112;45.892;-123.962;2023-04-01T08:15:25;101202.56;;;7.19;85.70
51067;BME280;37112;45.892;-123.962;2023-04-01T08:17:54;101201.67;;;7.19;85.85
51067;BME280;37112;45.892;-123.962;2023-04-01T08:20:25;101205.70;;;7.20;85.95
51067;BME280;37112;45.892;-123.962;2023-04-01T08:22:41;101205.64;;;7.21;86.00
51067;BME280;37112;45.892;-123.962;2023-04-01T08:25:05;101205.42;;;7.22;85.97
51067;BME280;37112;45.892;-123.962;2023-04-01T08:27:20;101203.44;;;7.23;85.75
51067;BME280;37112;45.892;-123.962;2023-04-01T08:29:37;101209.52;;;7.21;85.40
51067;BME280;37112;45.892;-123.962;2023-04-01T08:31:51;101204.06;;;7.21;85.32
51067;BME280;37112;45.892;-123.962;2023-04-01T08:34:07;101203.14;;;7.22;85.54
51067;BME280;37112;45.892;-123.962;2023-04-01T08:36:23;101201.87;;;7.22;85.24
51067;BME280;37112;45.892;-123.962;2023-04-01T08:38:57;101200.34;;;7.21;84.83
51067;BME280;37112;45.892;-123.962;2023-04-01T08:41:30;101205.90;;;7.19;84.45
51067;BME280;37112;45.892;-123.962;2023-04-01T08:44:35;101208.15;;;7.20;85.08
51067;BME280;37112;45.892;-123.962;2023-04-01T08:47:17;101204.20;;;7.22;85.16
51067;BME280;37112;45.892;-123.962;2023-04-01T08:49:47;101201.92;;;7.21;85.01
51067;BME280;37112;45.892;-123.962;2023-04-01T08:52:23;101202.16;;;7.20;84.47
51067;BME280;37112;45.892;-123.962;2023-04-01T08:54:56;101221.87;;;7.18;83.96
51067;BME280;37112;45.892;-123.962;2023-04-01T08:57:40;101239.29;;;7.03;84.50
51067;BME280;37112;45.892;-123.962;2023-04-01T09:00:21;101242.37;;;6.82;84.50
51067;BME280;37112;45.892;-123.962;2023-04-01T09:05:52;101237.14;;;6.56;86.36
51067;BME280;37112;45.892;-123.962;2023-04-01T09:08:23;101224.81;;;6.51;86.66
51067;BME280;37112;45.892;-123.962;2023-04-01T09:10:53;101230.16;;;6.46;86.57
51067;BME280;37112;45.892;-123.962;2023-04-01T09:13:59;101228.66;;;6.39;86.64
51067;BME280;37112;45.892;-123.962;2023-04-01T09:19:16;101236.60;;;6.35;86.74
51067;BME280;37112;45.892;-123.962;2023-04-01T09:21:48;101235.40;;;6.34;86.86
51067;BME280;37112;45.892;-123.962;2023-04-01T09:24:34;101240.24;;;6.32;86.68
51067;BME280;37112;45.892;-123.962;2023-04-01T09:27:01;101237.52;;;6.30;86.49
51067;BME280;37112;45.892;-123.962;2023-04-01T09:29:21;101230.58;;;6.31;86.67
51067;BME280;37112;45.892;-123.962;2023-04-01T09:32:04;101236.29;;;6.34;86.83
51067;BME280;37112;45.892;-123.962;2023-04-01T09:37:20;101247.48;;;6.45;87.99
51067;BME280;37112;45.892;-123.962;2023-04-01T09:39:47;101244.78;;;6.51;88.16
51067;BME280;37112;45.892;-123.962;2023-04-01T09:42:15;101246.07;;;6.53;88.19
51067;BME280;37112;45.892;-123.962;2023-04-01T09:44:50;101241.95;;;6.55;88.15
51067;BME280;37112;45.892;-123.962;2023-04-01T09:47:16;101239.58;;;6.52;87.42
51067;BME280;37112;45.892;-123.962;2023-04-01T09:49:53;101238.85;;;6.49;87.22
51067;BME280;37112;45.892;-123.962;2023-04-01T09:52:18;101235.73;;;6.48;87.15
51067;BME280;37112;45.892;-123.962;2023-04-01T09:54:49;101228.36;;;6.47;87.12
51067;BME280;37112;45.892;-123.962;2023-04-01T10:03:22;101220.98;;;6.46;86.93
51067;BME280;37112;45.892;-123.962;2023-04-01T10:06:10;101212.88;;;6.45;86.75
51067;BME280;37112;45.892;-123.962;2023-04-01T10:08:56;101212.33;;;6.46;86.78
51067;BME280;37112;45.892;-123.962;2023-04-01T10:14:22;101199.24;;;6.51;87.01
51067;BME280;37112;45.892;-123.962;2023-04-01T10:25:04;101213.75;;;6.58;87.11
51067;BME280;37112;45.892;-123.962;2023-04-01T10:27:35;101212.23;;;6.60;87.25
51067;BME280;37112;45.892;-123.962;2023-04-01T10:50:47;101211.26;;;6.63;86.09
51067;BME280;37112;45.892;-123.962;2023-04-01T10:56:34;101216.23;;;6.62;85.65
51067;BME280;37112;45.892;-123.962;2023-04-01T11:14:05;101212.95;;;6.64;85.25
51067;BME280;37112;45.892;-123.962;2023-04-01T11:24:42;101189.99;;;6.65;84.99
51067;BME280;37112;45.892;-123.962;2023-04-01T11:30:08;101238.19;;;6.52;84.66
51067;BME280;37112;45.892;-123.962;2023-04-01T11:32:31;101242.69;;;6.33;84.18
51067;BME280;37112;45.892;-123.962;2023-04-01T11:34:53;101264.06;;;6.06;84.44
51067;BME280;37112;45.892;-123.962;2023-04-01T11:37:13;101268.14;;;5.87;84.94
51067;BME280;37112;45.892;-123.962;2023-04-01T11:40:04;101269.10;;;5.71;86.37
51067;BME280;37112;45.892;-123.962;2023-04-01T11:42:43;101276.91;;;5.65;87.83
51067;BME280;37112;45.892;-123.962;2023-04-01T11:45:39;101280.02;;;5.57;88.75
51067;BME280;37112;45.892;-123.962;2023-04-01T11:48:09;101286.64;;;5.55;89.46
51067;BME280;37112;45.892;-123.962;2023-04-01T11:50:30;101293.86;;;5.50;89.68
51067;BME280;37112;45.892;-123.962;2023-04-01T11:55:22;101298.25;;;5.31;89.05
51067;BME280;37112;45.892;-123.962;2023-04-01T11:57:56;101299.70;;;5.20;88.78
51067;BME280;37112;45.892;-123.962;2023-04-01T12:00:34;101291.53;;;5.13;88.77
51067;BME280;37112;45.892;-123.962;2023-04-01T12:03:00;101289.14;;;5.06;88.63
51067;BME280;37112;45.892;-123.962;2023-04-01T12:05:38;101287.17;;;5.02;88.77
51067;BME280;37112;45.892;-123.962;2023-04-01T12:08:16;101283.14;;;5.01;88.73
51067;BME280;37112;45.892;-123.962;2023-04-01T12:10:39;101290.39;;;5.00;88.64
51067;BME280;37112;45.892;-123.962;2023-04-01T12:12:54;101293.02;;;5.01;88.64
51067;BME280;37112;45.892;-123.962;2023-04-01T12:15:20;101290.83;;;5.03;88.76
51067;BME280;37112;45.892;-123.962;2023-04-01T12:17:39;101285.95;;;5.06;88.77
51067;BME280;37112;45.892;-123.962;2023-04-01T12:19:59;101280.38;;;5.10;88.95
51067;BME280;37112;45.892;-123.962;2023-04-01T12:22:26;101279.38;;;5.13;88.84
51067;BME280;37112;45.892;-123.962;2023-04-01T12:24:53;101267.45;;;5.17;88.75
51067;BME280;37112;45.892;-123.962;2023-04-01T12:30:26;101295.75;;;5.23;89.01
51067;BME280;37112;45.892;-123.962;2023-04-01T12:32:45;101304.83;;;5.24;89.42
51067;BME280;37112;45.892;-123.962;2023-04-01T12:35:04;101305.74;;;5.24;89.32
51067;BME280;37112;45.892;-123.962;2023-04-01T12:37:24;101304.77;;;5.21;89.59
51067;BME280;37112;45.892;-123.962;2023-04-01T12:40:13;101303.04;;;5.21;89.83
51067;BME280;37112;45.892;-123.962;2023-04-01T12:42:44;101302.64;;;5.22;89.97
51067;BME280;37112;45.892;-123.962;2023-04-01T12:45:07;101302.77;;;5.23;90.48
51067;BME280;37112;45.892;-123.962;2023-04-01T12:52:44;101297.00;;;5.37;91.06
51067;BME280;37112;45.892;-123.962;2023-04-01T12:55:27;101298.59;;;5.41;91.14
51067;BME280;37112;45.892;-123.962;2023-04-01T12:58:05;101294.50;;;5.47;91.12
51067;BME280;37112;45.892;-123.962;2023-04-01T13:00:38;101300.63;;;5.53;91.34
51067;BME280;37112;45.892;-123.962;2023-04-01T13:03:02;101297.92;;;5.59;91.74
51067;BME280;37112;45.892;-123.962;2023-04-01T13:07:58;101305.88;;;5.68;91.44
51067;BME280;37112;45.892;-123.962;2023-04-01T13:10:18;101308.52;;;5.72;91.48
51067;BME280;37112;45.892;-123.962;2023-04-01T13:12:43;101309.48;;;5.75;91.42
51067;BME280;37112;45.892;-123.962;2023-04-01T13:15:27;101312.84;;;5.79;91.47
51067;BME280;37112;45.892;-123.962;2023-04-01T13:17:44;101312.27;;;5.85;91.69
51067;BME280;37112;45.892;-123.962;2023-04-01T13:20:02;101313.73;;;5.88;91.37
51067;BME280;37112;45.892;-123.962;2023-04-01T13:22:20;101311.72;;;5.91;91.11
51067;BME280;37112;45.892;-123.962;2023-04-01T13:24:41;101308.69;;;5.92;91.10
51067;BME280;37112;45.892;-123.962;2023-04-01T13:27:00;101308.58;;;5.95;91.16
51067;BME280;37112;45.892;-123.962;2023-04-01T13:29:16;101312.71;;;5.97;91.11
51067;BME280;37112;45.892;-123.962;2023-04-01T13:34:04;101340.69;;;5.79;87.28